Cedar, Iowa
Current Conditions -  °F | °C
As of 4:35 AM on Tuesday 27 Jan 2015 (Local Time) from KOOA Reporting Station
Clear Clear  
Wind Chill: 23°   Ceiling: Unl
Heat Index: 31°   Visibility: 10mi
Dew Point: 29°   Wind: 9mph
Humidity: 92%   Direction: 330°NNW
Pressure: 30.05"   Gusts: NA
Location:  41.21°N, 92.53°W
Report Text: KOOA 271035Z AUTO 33008KT 10SM CLR M01/M02 A3005 RMK AO2 T10071019
Loading
Personal Weather Stations






























Interactive Weather Map New forecast layout! Learn more

10-Day Weather Forecast

Advertisements
Track Severe Weather on mobile